Aérodrome :
LOGIN :

S'inscrire | Disclaimer

   EN    FR    IT 

 










Légende :    VFR   VFR Marginal   IFR   IFR Intensif   IFR Très Intensif
Visi : 
Plafond : 
>= 8 km
>= 3000ft
5 à 8 km
1000 à 3000 ft
1500m à 5 km
500 à 1000 ft
800 à 1500m
200 à 500 ft
< 800m
< 200 ft
Symboles :   Orages  Brouillard  Fortes neiges  Fortes précipitations  Vent > 20 kt
SIGMETs :   Divers  Orages  Givrage  Turbulence  Onde Orograph.  Cendres Volcan.






- Altitude de l'aérodrome : 465 ft
- Code IATA : LEJ


EDDP - Leipzig Halle

DERNIER METAR :
  • 112120Z 19008KT 6000 -SNRA SCT010 OVC019 01/00 Q1005 TEMPO 4000 -SNRA

METARs EXPIRÉS :
  • 112050Z 19009KT 8000 -SNRA SCT010 OVC019 01/00 Q1006 TEMPO 4000 -SNRA
  • 112020Z 20010KT 9999 -SNRA OVC020 02/00 Q1006 TEMPO 4000 -SNRA
  • 111950Z 19009KT 9999 -RA FEW010 BKN026 02/M00 Q1006 TEMPO 4000 -RASN
  • 111920Z 19008KT 9999 -RA SCT027 BKN042 02/M01 Q1006 TEMPO 4000 -RASN
  • 111850Z 19007KT 170V230 9999 -RA SCT028 BKN042 02/M01 Q1006 NOSIG
  • 111820Z 18009KT 9999 -RA SCT042 03/M02 Q1006 NOSIG

TAF TAF EDDP
Valide du 11 à 18h jusqu'au 12 à 18h UTC


111700Z 1118/1218 20008KT 9999 BKN045
TEMPO 1121/1206 BKN010
PROB30
TEMPO 1121/1205 2000 RASN BKN007



MET'MAP, la Météo Aéronautique d'un coup d'oeil ! - Copyright ORBIFLY Décembre 2007 - Disclaimer

ORBIFLY MET'MAP TEAM :

Programmation & Développement : Alexandra Zaïnal
Sur une idée originale de : Baudouin d'Aumeries
Assistance à la programmation : Marc-Olivier Méhu
Soutien technique & logistique : Manuel Goepfert

Contact : metmap@orbifly.com




SOURCES & CREDITS :

   NOAA